sensor_id;sensor_type;location;lat;lon;timestamp;P1;durP1;ratioP1;P2;durP2;ratioP2
65053;SDS011;51639;47.828;35.038;2023-04-03T00:04:36;12.07;;;3.17;;
65053;SDS011;51639;47.828;35.038;2023-04-03T00:19:40;4.63;;;2.53;;
65053;SDS011;51639;47.828;35.038;2023-04-03T00:34:59;8.70;;;4.10;;
65053;SDS011;51639;47.828;35.038;2023-04-03T00:50:01;6.20;;;2.73;;
65053;SDS011;51639;47.828;35.038;2023-04-03T01:05:04;5.47;;;2.97;;
65053;SDS011;51639;47.828;35.038;2023-04-03T01:50:49;6.87;;;3.43;;
65053;SDS011;51639;47.828;35.038;2023-04-03T02:05:52;6.23;;;3.80;;
65053;SDS011;51639;47.828;35.038;2023-04-03T02:20:54;5.07;;;3.07;;
65053;SDS011;51639;47.828;35.038;2023-04-03T02:35:56;5.57;;;3.77;;
65053;SDS011;51639;47.828;35.038;2023-04-03T02:51:03;6.97;;;3.57;;
65053;SDS011;51639;47.828;35.038;2023-04-03T03:06:09;6.67;;;4.40;;
65053;SDS011;51639;47.828;35.038;2023-04-03T03:21:13;6.00;;;3.93;;
65053;SDS011;51639;47.828;35.038;2023-04-03T03:36:16;7.00;;;4.47;;
65053;SDS011;51639;47.828;35.038;2023-04-03T03:51:18;5.03;;;3.20;;
65053;SDS011;51639;47.828;35.038;2023-04-03T04:06:20;7.77;;;4.37;;
65053;SDS011;51639;47.828;35.038;2023-04-03T04:21:22;5.53;;;3.70;;
65053;SDS011;51639;47.828;35.038;2023-04-03T04:36:24;6.50;;;3.53;;
65053;SDS011;51639;47.828;35.038;2023-04-03T04:51:26;4.57;;;2.77;;
65053;SDS011;51639;47.828;35.038;2023-04-03T05:06:35;7.03;;;3.63;;
65053;SDS011;51639;47.828;35.038;2023-04-03T05:21:37;5.77;;;3.40;;
65053;SDS011;51639;47.828;35.038;2023-04-03T05:36:40;33.43;;;16.23;;
65053;SDS011;51639;47.828;35.038;2023-04-03T05:51:43;2.67;;;2.27;;
65053;SDS011;51639;47.828;35.038;2023-04-03T06:06:48;4.93;;;2.70;;
65053;SDS011;51639;47.828;35.038;2023-04-03T06:21:55;4.50;;;2.97;;
65053;SDS011;51639;47.828;35.038;2023-04-03T06:36:57;4.43;;;2.63;;
65053;SDS011;51639;47.828;35.038;2023-04-03T06:51:59;20.23;;;4.10;;
65053;SDS011;51639;47.828;35.038;2023-04-03T07:07:03;22.17;;;10.70;;
65053;SDS011;51639;47.828;35.038;2023-04-03T07:22:05;7.77;;;3.83;;
65053;SDS011;51639;47.828;35.038;2023-04-03T07:37:07;7.20;;;3.23;;
65053;SDS011;51639;47.828;35.038;2023-04-03T07:52:17;6.73;;;4.03;;
65053;SDS011;51639;47.828;35.038;2023-04-03T08:07:19;16.27;;;8.77;;
65053;SDS011;51639;47.828;35.038;2023-04-03T08:22:22;7.23;;;4.97;;
65053;SDS011;51639;47.828;35.038;2023-04-03T08:37:24;10.03;;;6.17;;
65053;SDS011;51639;47.828;35.038;2023-04-03T08:52:38;10.67;;;4.90;;
65053;SDS011;51639;47.828;35.038;2023-04-03T09:08:09;9.27;;;5.07;;
65053;SDS011;51639;47.828;35.038;2023-04-03T09:23:18;10.10;;;6.07;;
65053;SDS011;51639;47.828;35.038;2023-04-03T09:38:31;15.37;;;6.50;;
65053;SDS011;51639;47.828;35.038;2023-04-03T09:53:39;14.53;;;7.67;;
65053;SDS011;51639;47.828;35.038;2023-04-03T10:08:43;19.87;;;10.07;;
65053;SDS011;51639;47.828;35.038;2023-04-03T10:24:09;27.07;;;13.83;;
65053;SDS011;51639;47.828;35.038;2023-04-03T10:54:36;31.37;;;13.40;;
65053;SDS011;51639;47.828;35.038;2023-04-03T11:09:43;36.27;;;15.10;;
65053;SDS011;51639;47.828;35.038;2023-04-03T11:25:03;33.87;;;14.03;;
65053;SDS011;51639;47.828;35.038;2023-04-03T12:10:25;28.60;;;13.53;;
65053;SDS011;51639;47.828;35.038;2023-04-03T12:41:18;26.30;;;11.60;;
65053;SDS011;51639;47.828;35.038;2023-04-03T12:56:46;29.73;;;13.57;;
65053;SDS011;51639;47.828;35.038;2023-04-03T13:11:51;28.63;;;12.90;;
65053;SDS011;51639;47.828;35.038;2023-04-03T13:43:01;38.03;;;15.27;;
65053;SDS011;51639;47.828;35.038;2023-04-03T14:13:18;30.53;;;12.93;;
65053;SDS011;51639;47.828;35.038;2023-04-03T14:28:25;37.57;;;14.83;;
65053;SDS011;51639;47.828;35.038;2023-04-03T14:43:38;24.80;;;12.60;;
65053;SDS011;51639;47.828;35.038;2023-04-03T14:58:41;21.43;;;10.43;;
65053;SDS011;51639;47.828;35.038;2023-04-03T15:29:37;20.83;;;10.67;;
65053;SDS011;51639;47.828;35.038;2023-04-03T15:44:44;24.73;;;12.13;;
65053;SDS011;51639;47.828;35.038;2023-04-03T15:59:46;31.33;;;17.63;;
65053;SDS011;51639;47.828;35.038;2023-04-03T16:14:48;27.57;;;15.37;;
65053;SDS011;51639;47.828;35.038;2023-04-03T16:29:50;28.17;;;13.00;;
65053;SDS011;51639;47.828;35.038;2023-04-03T16:44:52;33.57;;;12.47;;
65053;SDS011;51639;47.828;35.038;2023-04-03T16:59:55;34.87;;;13.23;;
65053;SDS011;51639;47.828;35.038;2023-04-03T17:14:57;35.87;;;14.90;;
65053;SDS011;51639;47.828;35.038;2023-04-03T17:45:38;39.87;;;16.60;;
65053;SDS011;51639;47.828;35.038;2023-04-03T18:00:40;40.30;;;16.80;;
65053;SDS011;51639;47.828;35.038;2023-04-03T18:15:44;56.63;;;17.80;;
65053;SDS011;51639;47.828;35.038;2023-04-03T18:30:49;45.33;;;18.37;;
65053;SDS011;51639;47.828;35.038;2023-04-03T18:45:51;48.77;;;18.07;;
65053;SDS011;51639;47.828;35.038;2023-04-03T19:00:54;42.53;;;17.90;;
65053;SDS011;51639;47.828;35.038;2023-04-03T19:16:02;37.17;;;15.60;;
65053;SDS011;51639;47.828;35.038;2023-04-03T19:31:12;44.60;;;16.50;;
65053;SDS011;51639;47.828;35.038;2023-04-03T19:46:15;43.43;;;18.00;;
65053;SDS011;51639;47.828;35.038;2023-04-03T20:01:20;37.90;;;14.50;;
65053;SDS011;51639;47.828;35.038;2023-04-03T20:16:28;37.97;;;15.43;;
65053;SDS011;51639;47.828;35.038;2023-04-03T20:31:30;72.73;;;30.43;;
65053;SDS011;51639;47.828;35.038;2023-04-03T20:46:35;35.23;;;15.20;;
65053;SDS011;51639;47.828;35.038;2023-04-03T21:02:14;53.20;;;24.40;;
65053;SDS011;51639;47.828;35.038;2023-04-03T21:33:25;35.47;;;17.70;;
65053;SDS011;51639;47.828;35.038;2023-04-03T22:04:20;46.77;;;18.37;;
65053;SDS011;51639;47.828;35.038;2023-04-03T22:34:31;39.57;;;15.83;;
65053;SDS011;51639;47.828;35.038;2023-04-03T22:49:41;35.77;;;14.10;;
65053;SDS011;51639;47.828;35.038;2023-04-03T23:04:43;32.73;;;14.07;;
65053;SDS011;51639;47.828;35.038;2023-04-03T23:19:48;39.10;;;15.67;;
65053;SDS011;51639;47.828;35.038;2023-04-03T23:34:50;42.33;;;15.93;;
65053;SDS011;51639;47.828;35.038;2023-04-03T23:50:08;38.27;;;14.67;;
